Walmer, South Africa
Current Conditions -  °F | °C
As of 12:00 AM on Monday 26 Jan 2015 (Local Time) from FAPE Reporting Station
Broken Clouds Broken Clouds  
Wind Chill: 68°   Ceiling: 700
Heat Index: 68°   Visibility: 4mi
Dew Point: 66°   Wind: 7mph
Humidity: 94%   Direction: 220°SW
Pressure: 29.88"   Gusts: NA
Location:  33.98°S, 25.58°E
Report Text: FAPE 252200Z 22006KT 6000 BKN007 20/19 Q1012 TEMPO 5000 BR BKN005
Loading
Personal Weather Stations






























Interactive Weather Map New forecast layout! Learn more

10-Day Weather Forecast

Advertisements
Track Severe Weather on mobile